Time;durP1;ratioP1;P1;durP2;ratioP2;P2;SDS_P1;SDS_P2;PMS_P1;PMS_P2;Temp;Humidity;BMP_temperature;BMP_pressure;BME280_temperature;BME280_humidity;BME280_pressure;Samples;Min_cycle;Max_cycle;Signal;HPM_P1;HPM_P2
2022/08/23 00:01:42;;;;;;;9.80;3.50;;;;;;;;;;5050513;28;22217;-81
2022/08/23 00:04:11;;;;;;;5.95;4.20;;;;;;;;;;5057377;28;20500;-82
2022/08/23 00:06:38;;;;;;;6.45;3.70;;;;;;;;;;5057998;28;20542;-82
2022/08/23 00:09:05;;;;;;;7.03;3.97;;;;;;;;;;5058419;28;20424;-81
2022/08/23 00:11:45;;;;;;;5.97;3.88;;;;;;;;;;5059574;28;20420;-82
2022/08/23 00:14:18;;;;;;;4.80;3.90;;;;;;;;;;5052376;28;20501;-82
2022/08/23 00:16:45;;;;;;;6.00;3.60;;;;;;;;;;5052571;28;20423;-82
2022/08/23 00:19:12;;;;;;;4.70;3.40;;;;;;;;;;5054291;28;20427;-82
2022/08/23 00:21:39;;;;;;;6.57;3.50;;;;;;;;;;5056277;28;20429;-82
2022/08/23 00:24:07;;;;;;;4.53;3.30;;;;;;;;;;5055319;28;20433;-82
2022/08/23 00:26:54;;;;;;;6.82;3.70;;;;;;;;;;5028131;28;20429;-81
2022/08/23 00:29:23;;;;;;;7.63;3.60;;;;;;;;;;5045732;28;20441;-82
2022/08/23 00:31:50;;;;;;;6.43;3.58;;;;;;;;;;5056234;28;20433;-81
2022/08/23 00:34:20;;;;;;;5.70;3.70;;;;;;;;;;5035102;28;20479;-82
2022/08/23 00:36:47;;;;;;;5.75;3.55;;;;;;;;;;5051151;28;20455;-83
2022/08/23 00:39:13;;;;;;;7.40;3.78;;;;;;;;;;5054479;28;20441;-82
2022/08/23 00:41:43;;;;;;;5.22;3.58;;;;;;;;;;5052584;28;20425;-82
2022/08/23 00:49:47;;;;;;;4.80;3.67;;;;;;;;;;5053726;28;20421;-82
2022/08/23 00:52:16;;;;;;;7.32;3.80;;;;;;;;;;5057205;28;20431;-82
2022/08/23 00:54:44;;;;;;;7.18;3.60;;;;;;;;;;5055577;28;20432;-83
2022/08/23 00:57:14;;;;;;;5.40;3.63;;;;;;;;;;5036288;28;20425;-81
2022/08/23 00:59:56;;;;;;;5.13;3.80;;;;;;;;;;5054574;28;20433;-81
2022/08/23 01:02:24;;;;;;;5.35;4.05;;;;;;;;;;5059380;28;20427;-80
2022/08/23 01:04:53;;;;;;;8.10;4.20;;;;;;;;;;5055716;28;20438;-82
2022/08/23 01:07:28;;;;;;;4.93;3.80;;;;;;;;;;5053034;28;20425;-82
2022/08/23 01:09:58;;;;;;;6.38;3.65;;;;;;;;;;5057871;28;20441;-80
2022/08/23 01:12:31;;;;;;;5.47;4.07;;;;;;;;;;5076382;28;20423;-80
2022/08/23 01:14:59;;;;;;;5.50;3.70;;;;;;;;;;5075461;28;20470;-81
2022/08/23 01:17:30;;;;;;;6.18;4.10;;;;;;;;;;5038330;28;20484;-79
2022/08/23 01:19:58;;;;;;;5.25;3.80;;;;;;;;;;5057241;28;20910;-80
2022/08/23 01:22:27;;;;;;;5.72;3.70;;;;;;;;;;5054039;28;20521;-80
2022/08/23 01:24:57;;;;;;;4.45;4.00;;;;;;;;;;5053466;28;20433;-79
2022/08/23 01:27:27;;;;;;;5.57;4.03;;;;;;;;;;5044854;28;20413;-80
2022/08/23 01:29:56;;;;;;;6.07;4.00;;;;;;;;;;5052366;28;20444;-80
2022/08/23 01:32:24;;;;;;;8.60;3.80;;;;;;;;;;5051980;28;20444;-80
2022/08/23 01:34:50;;;;;;;6.65;3.33;;;;;;;;;;5037387;28;20421;-80
2022/08/23 01:37:19;;;;;;;6.22;3.88;;;;;;;;;;5050734;28;20430;-81
2022/08/23 01:39:45;;;;;;;5.25;3.70;;;;;;;;;;5052285;28;20948;-81
2022/08/23 01:42:13;;;;;;;8.00;3.92;;;;;;;;;;5049278;28;20438;-82
2022/08/23 01:44:40;;;;;;;8.60;3.50;;;;;;;;;;5055508;28;20433;-80
2022/08/23 01:47:07;;;;;;;8.55;4.20;;;;;;;;;;5057126;28;20449;-79
2022/08/23 01:49:38;;;;;;;7.07;4.18;;;;;;;;;;5059318;28;20417;-80
2022/08/23 01:52:06;;;;;;;7.80;4.23;;;;;;;;;;5057102;28;20448;-79
2022/08/23 01:54:33;;;;;;;6.82;4.10;;;;;;;;;;5054011;28;20436;-81
2022/08/23 01:57:00;;;;;;;6.18;3.85;;;;;;;;;;5056925;28;20422;-80
2022/08/23 01:59:31;;;;;;;4.78;3.83;;;;;;;;;;5050444;28;20421;-80
2022/08/23 02:01:58;;;;;;;7.05;4.22;;;;;;;;;;5056392;28;20445;-80
2022/08/23 02:04:26;;;;;;;4.95;3.88;;;;;;;;;;5058011;28;20421;-79
2022/08/23 02:06:53;;;;;;;6.30;3.90;;;;;;;;;;5052393;28;20423;-80
2022/08/23 02:09:19;;;;;;;6.50;4.10;;;;;;;;;;5040345;28;20417;-81
2022/08/23 02:11:48;;;;;;;6.38;4.00;;;;;;;;;;5052945;28;20429;-81
2022/08/23 02:14:21;;;;;;;6.30;4.10;;;;;;;;;;5053155;28;20437;-80
2022/08/23 02:16:51;;;;;;;4.57;3.40;;;;;;;;;;5054348;28;20428;-80
2022/08/23 02:19:20;;;;;;;7.80;4.15;;;;;;;;;;5055822;28;20479;-80
2022/08/23 02:21:47;;;;;;;6.80;4.43;;;;;;;;;;5040746;28;20433;-81
2022/08/23 02:24:15;;;;;;;9.07;4.30;;;;;;;;;;5051889;28;20429;-80
2022/08/23 02:26:42;;;;;;;5.47;3.83;;;;;;;;;;5053041;28;20423;-80
2022/08/23 02:29:09;;;;;;;4.47;3.72;;;;;;;;;;5046676;28;20444;-82
2022/08/23 02:31:35;;;;;;;8.03;3.90;;;;;;;;;;5041089;28;20440;-81
2022/08/23 02:34:04;;;;;;;4.55;3.53;;;;;;;;;;5050777;28;20436;-82
2022/08/23 02:36:32;;;;;;;5.80;3.90;;;;;;;;;;5049368;28;20481;-79
2022/08/23 02:38:58;;;;;;;6.72;4.30;;;;;;;;;;5056596;28;20452;-80
2022/08/23 02:41:26;;;;;;;7.57;4.03;;;;;;;;;;5053685;28;20421;-79
2022/08/23 02:43:53;;;;;;;8.00;4.40;;;;;;;;;;5057723;28;20456;-79
2022/08/23 02:46:20;;;;;;;7.03;4.40;;;;;;;;;;5041246;28;20425;-80
2022/08/23 02:48:47;;;;;;;7.00;4.10;;;;;;;;;;5057798;28;20431;-80
2022/08/23 02:51:17;;;;;;;5.18;4.10;;;;;;;;;;5055976;28;20433;-80
2022/08/23 02:53:47;;;;;;;7.53;4.40;;;;;;;;;;5057519;28;20432;-80
2022/08/23 02:56:14;;;;;;;9.35;4.25;;;;;;;;;;5060150;28;20429;-80
2022/08/23 02:58:40;;;;;;;6.45;3.92;;;;;;;;;;5057326;28;21159;-81
2022/08/23 03:01:15;;;;;;;6.65;4.00;;;;;;;;;;5058019;28;20431;-80
2022/08/23 03:03:42;;;;;;;7.20;4.40;;;;;;;;;;5057078;28;20433;-80
2022/08/23 03:06:10;;;;;;;4.93;4.13;;;;;;;;;;5057145;28;20429;-80
2022/08/23 03:08:38;;;;;;;6.15;4.55;;;;;;;;;;5053844;28;20445;-81
2022/08/23 03:11:10;;;;;;;4.07;3.70;;;;;;;;;;5057449;28;20416;-81
2022/08/23 03:13:37;;;;;;;4.97;4.00;;;;;;;;;;5055931;28;20429;-80
2022/08/23 03:16:04;;;;;;;11.00;4.40;;;;;;;;;;5053091;28;20423;-80
2022/08/23 03:18:30;;;;;;;7.83;4.27;;;;;;;;;;5056093;28;20490;-82
2022/08/23 03:20:57;;;;;;;5.00;4.30;;;;;;;;;;5054375;28;20413;-80
2022/08/23 03:23:23;;;;;;;8.23;4.90;;;;;;;;;;5039846;28;20433;-81
2022/08/23 03:25:52;;;;;;;6.65;4.40;;;;;;;;;;5054013;28;20418;-81
2022/08/23 03:28:19;;;;;;;5.30;4.47;;;;;;;;;;5049825;28;20802;-80
2022/08/23 03:30:45;;;;;;;7.20;4.80;;;;;;;;;;5053928;28;20413;-81
2022/08/23 03:33:12;;;;;;;5.57;4.40;;;;;;;;;;5061360;28;20424;-80
2022/08/23 03:35:40;;;;;;;8.30;4.90;;;;;;;;;;5058128;28;20428;-81
2022/08/23 03:38:06;;;;;;;6.45;4.50;;;;;;;;;;5058347;28;20428;-82
2022/08/23 03:40:33;;;;;;;6.10;4.70;;;;;;;;;;5054018;28;20429;-81
2022/08/23 03:43:03;;;;;;;6.75;4.85;;;;;;;;;;5057663;28;20454;-80
2022/08/23 03:45:31;;;;;;;7.03;4.25;;;;;;;;;;5051803;28;20455;-81
2022/08/23 03:47:58;;;;;;;6.00;4.57;;;;;;;;;;5062564;28;20424;-81
2022/08/23 03:50:25;;;;;;;4.72;4.22;;;;;;;;;;5057946;28;20410;-81
2022/08/23 03:52:52;;;;;;;5.10;4.20;;;;;;;;;;5056151;28;20935;-81
2022/08/23 03:55:18;;;;;;;5.60;4.75;;;;;;;;;;5057097;28;20429;-82
2022/08/23 03:57:47;;;;;;;5.80;4.30;;;;;;;;;;5056459;28;20483;-82
2022/08/23 04:00:19;;;;;;;4.80;3.97;;;;;;;;;;5054137;28;20439;-81
2022/08/23 04:02:46;;;;;;;7.20;4.70;;;;;;;;;;5057714;28;20425;-81
2022/08/23 04:05:14;;;;;;;5.32;4.07;;;;;;;;;;5047426;28;20415;-80
2022/08/23 04:07:44;;;;;;;8.27;4.95;;;;;;;;;;5055216;28;20515;-80
2022/08/23 04:10:13;;;;;;;5.07;4.28;;;;;;;;;;5052302;28;20483;-81
2022/08/23 04:12:40;;;;;;;7.05;4.30;;;;;;;;;;5053375;28;20976;-81
2022/08/23 04:15:07;;;;;;;6.82;4.40;;;;;;;;;;5052858;28;20426;-80
2022/08/23 04:17:35;;;;;;;8.77;4.97;;;;;;;;;;5053683;28;20489;-81
2022/08/23 04:20:03;;;;;;;7.13;4.90;;;;;;;;;;5052486;28;20432;-81
2022/08/23 04:22:30;;;;;;;5.40;4.53;;;;;;;;;;5052882;28;20474;-82
2022/08/23 04:24:56;;;;;;;7.55;4.50;;;;;;;;;;5054568;28;20461;-81
2022/08/23 04:27:24;;;;;;;5.82;4.93;;;;;;;;;;5051989;28;20434;-80
2022/08/23 04:29:52;;;;;;;7.00;5.30;;;;;;;;;;5054982;28;20435;-80
2022/08/23 04:32:20;;;;;;;6.53;4.70;;;;;;;;;;5048274;28;20803;-80
2022/08/23 04:34:48;;;;;;;7.60;4.70;;;;;;;;;;5061411;28;20420;-81
2022/08/23 04:37:16;;;;;;;7.00;4.90;;;;;;;;;;5050222;28;20428;-81
2022/08/23 04:42:33;;;;;;;7.13;5.00;;;;;;;;;;5019323;28;20421;-81
2022/08/23 04:45:01;;;;;;;6.45;4.60;;;;;;;;;;5054818;28;20425;-80
2022/08/23 04:47:28;;;;;;;7.72;4.82;;;;;;;;;;5054096;28;20483;-81
2022/08/23 04:49:56;;;;;;;10.60;4.90;;;;;;;;;;5056094;28;20958;-80
2022/08/23 04:52:25;;;;;;;6.68;5.05;;;;;;;;;;5056864;28;20428;-80
2022/08/23 04:54:56;;;;;;;5.20;4.60;;;;;;;;;;5055653;28;20954;-81
2022/08/23 04:57:23;;;;;;;8.50;4.93;;;;;;;;;;5052123;28;20425;-80
2022/08/23 04:59:56;;;;;;;6.57;4.50;;;;;;;;;;5049976;28;20771;-80
2022/08/23 05:02:24;;;;;;;5.35;4.85;;;;;;;;;;5054286;28;20433;-80
2022/08/23 05:04:51;;;;;;;6.38;4.55;;;;;;;;;;5055031;28;20429;-80
2022/08/23 05:07:20;;;;;;;5.60;4.60;;;;;;;;;;5049535;28;20458;-80
2022/08/23 05:09:46;;;;;;;5.77;4.43;;;;;;;;;;5053685;28;20448;-80
2022/08/23 05:12:13;;;;;;;5.35;4.85;;;;;;;;;;5035216;28;20445;-81
2022/08/23 05:14:40;;;;;;;9.88;5.05;;;;;;;;;;5047254;28;20440;-81
2022/08/23 05:17:07;;;;;;;4.95;4.25;;;;;;;;;;5058197;28;20432;-81
2022/08/23 05:19:34;;;;;;;5.40;4.90;;;;;;;;;;5055535;28;20427;-81
2022/08/23 05:22:00;;;;;;;6.85;5.30;;;;;;;;;;5056324;28;20441;-81
2022/08/23 05:24:31;;;;;;;8.48;4.95;;;;;;;;;;5054699;28;20433;-81
2022/08/23 05:26:58;;;;;;;6.70;5.10;;;;;;;;;;5057061;28;20429;-81
2022/08/23 05:29:25;;;;;;;7.35;4.20;;;;;;;;;;5051690;28;20439;-81
2022/08/23 05:31:52;;;;;;;11.37;4.80;;;;;;;;;;5051936;28;20458;-81
2022/08/23 05:34:23;;;;;;;7.22;4.60;;;;;;;;;;5050712;28;20933;-81
2022/08/23 05:36:51;;;;;;;6.15;4.30;;;;;;;;;;5052910;28;20516;-81
2022/08/23 05:39:18;;;;;;;5.78;4.57;;;;;;;;;;5059922;28;20477;-80
2022/08/23 05:41:46;;;;;;;8.00;5.25;;;;;;;;;;5058155;28;20417;-80
2022/08/23 05:44:13;;;;;;;7.03;5.28;;;;;;;;;;5057928;28;20944;-79
2022/08/23 05:46:40;;;;;;;6.75;5.63;;;;;;;;;;5056978;28;20422;-80
2022/08/23 05:49:07;;;;;;;6.15;4.45;;;;;;;;;;5056760;28;20798;-83
2022/08/23 05:51:34;;;;;;;6.90;4.90;;;;;;;;;;5059172;28;20409;-80
2022/08/23 05:54:02;;;;;;;7.03;4.93;;;;;;;;;;5056339;28;20431;-79
2022/08/23 05:56:29;;;;;;;8.32;5.00;;;;;;;;;;5057929;28;20424;-80
2022/08/23 05:58:58;;;;;;;6.90;5.30;;;;;;;;;;5054500;28;20429;-82
2022/08/23 06:01:25;;;;;;;7.03;4.60;;;;;;;;;;5058255;28;20425;-80
2022/08/23 06:03:53;;;;;;;9.80;5.40;;;;;;;;;;5056588;28;21065;-80
2022/08/23 06:06:20;;;;;;;5.35;4.70;;;;;;;;;;5047410;28;20845;-79
2022/08/23 06:08:47;;;;;;;7.25;4.80;;;;;;;;;;5060630;28;20455;-82
2022/08/23 06:11:17;;;;;;;7.30;4.80;;;;;;;;;;5056872;28;20437;-80
2022/08/23 06:13:46;;;;;;;5.55;4.72;;;;;;;;;;5057679;28;20443;-80
2022/08/23 06:16:18;;;;;;;8.20;4.50;;;;;;;;;;5059509;28;20421;-80
2022/08/23 06:18:45;;;;;;;4.90;4.40;;;;;;;;;;5063822;28;20453;-80
2022/08/23 06:21:12;;;;;;;7.75;4.50;;;;;;;;;;5064404;28;20420;-80
2022/08/23 06:23:39;;;;;;;7.05;4.60;;;;;;;;;;5061711;28;20465;-81
2022/08/23 06:26:11;;;;;;;8.30;4.70;;;;;;;;;;5044915;28;20427;-79
2022/08/23 06:28:40;;;;;;;5.57;4.40;;;;;;;;;;5053794;28;20435;-80
2022/08/23 06:31:08;;;;;;;7.17;4.70;;;;;;;;;;5056985;28;20453;-80
2022/08/23 06:33:36;;;;;;;9.88;5.20;;;;;;;;;;5075015;28;20448;-80
2022/08/23 06:36:05;;;;;;;9.15;4.70;;;;;;;;;;5061223;28;20889;-81
2022/08/23 06:38:34;;;;;;;11.20;4.75;;;;;;;;;;5062374;28;20426;-79
2022/08/23 06:41:01;;;;;;;6.33;4.47;;;;;;;;;;5059670;28;20458;-82
2022/08/23 06:43:28;;;;;;;5.38;4.38;;;;;;;;;;5059794;28;20456;-80
2022/08/23 06:45:55;;;;;;;8.40;5.10;;;;;;;;;;5059428;28;20413;-80
2022/08/23 06:48:24;;;;;;;8.65;5.63;;;;;;;;;;5060429;28;20894;-81
2022/08/23 06:50:56;;;;;;;8.75;4.80;;;;;;;;;;5060527;28;21029;-81
2022/08/23 06:53:22;;;;;;;5.72;5.00;;;;;;;;;;5059719;28;20426;-80
2022/08/23 06:55:49;;;;;;;7.65;4.90;;;;;;;;;;5058150;28;20435;-80
2022/08/23 06:58:17;;;;;;;6.53;4.30;;;;;;;;;;5058748;28;20437;-80
2022/08/23 07:00:44;;;;;;;6.80;4.20;;;;;;;;;;5046847;28;20433;-82
2022/08/23 07:03:13;;;;;;;8.15;4.70;;;;;;;;;;5065003;28;20496;-80
2022/08/23 07:05:40;;;;;;;8.10;5.00;;;;;;;;;;5059367;28;20482;-79
2022/08/23 07:08:07;;;;;;;7.97;4.50;;;;;;;;;;5059404;28;20413;-81
2022/08/23 07:10:38;;;;;;;6.88;4.10;;;;;;;;;;5060566;28;20429;-80
2022/08/23 07:13:06;;;;;;;7.27;4.50;;;;;;;;;;5061713;28;20401;-79
2022/08/23 07:15:32;;;;;;;6.80;4.40;;;;;;;;;;5061268;28;20417;-79
2022/08/23 07:17:59;;;;;;;6.82;4.60;;;;;;;;;;5060514;28;20421;-80
2022/08/23 07:20:28;;;;;;;7.28;4.10;;;;;;;;;;5060394;28;20425;-80
2022/08/23 07:22:54;;;;;;;9.02;4.90;;;;;;;;;;5058267;28;20600;-82
2022/08/23 07:25:25;;;;;;;6.47;4.23;;;;;;;;;;5058517;28;20794;-82
2022/08/23 07:27:53;;;;;;;5.28;4.43;;;;;;;;;;5053917;28;20507;-81
2022/08/23 07:30:21;;;;;;;6.57;4.47;;;;;;;;;;5056843;28;20425;-79
2022/08/23 07:32:47;;;;;;;6.57;4.68;;;;;;;;;;5057188;28;20443;-81
2022/08/23 07:35:15;;;;;;;9.68;4.20;;;;;;;;;;5059219;28;20445;-81
2022/08/23 07:37:42;;;;;;;6.40;4.40;;;;;;;;;;5055643;28;20455;-80
2022/08/23 07:40:10;;;;;;;6.80;4.68;;;;;;;;;;5043321;28;20493;-80
2022/08/23 07:42:38;;;;;;;9.18;4.40;;;;;;;;;;5059828;28;20433;-80
2022/08/23 07:45:07;;;;;;;7.47;4.10;;;;;;;;;;5055107;28;20468;-80
2022/08/23 07:47:34;;;;;;;7.82;4.47;;;;;;;;;;5036951;28;21283;-80
2022/08/23 07:50:00;;;;;;;7.97;4.80;;;;;;;;;;5060851;28;20416;-80
2022/08/23 07:52:27;;;;;;;8.80;3.97;;;;;;;;;;5057479;28;20421;-80
2022/08/23 07:54:54;;;;;;;6.63;4.00;;;;;;;;;;5057137;28;20913;-80
2022/08/23 07:57:21;;;;;;;4.78;3.88;;;;;;;;;;5038637;28;20438;-80
2022/08/23 07:59:50;;;;;;;5.80;3.93;;;;;;;;;;5053176;28;20429;-81
2022/08/23 08:02:17;;;;;;;6.93;3.88;;;;;;;;;;5058876;28;20512;-81
2022/08/23 08:04:43;;;;;;;7.93;3.97;;;;;;;;;;5059892;28;20437;-81
2022/08/23 08:07:10;;;;;;;6.80;4.32;;;;;;;;;;5059581;28;20492;-79
2022/08/23 08:09:37;;;;;;;6.82;3.65;;;;;;;;;;5056711;28;20417;-82
2022/08/23 08:12:04;;;;;;;8.50;3.97;;;;;;;;;;5058240;28;20417;-79
2022/08/23 08:14:30;;;;;;;4.93;3.80;;;;;;;;;;5056795;28;20433;-80
2022/08/23 08:16:59;;;;;;;6.90;3.70;;;;;;;;;;5057364;28;20513;-80
2022/08/23 08:19:25;;;;;;;5.82;3.70;;;;;;;;;;5053640;28;20437;-80
2022/08/23 08:21:52;;;;;;;6.15;4.40;;;;;;;;;;5051809;28;20426;-78
2022/08/23 08:24:18;;;;;;;5.93;4.30;;;;;;;;;;5050961;28;20434;-79
2022/08/23 08:26:45;;;;;;;7.05;4.30;;;;;;;;;;5051126;28;20417;-79
2022/08/23 08:29:12;;;;;;;6.10;4.00;;;;;;;;;;5049758;28;20425;-80
2022/08/23 08:31:40;;;;;;;5.72;3.70;;;;;;;;;;5054533;28;20421;-80
2022/08/23 08:34:08;;;;;;;6.97;4.00;;;;;;;;;;5053967;28;20420;-79
2022/08/23 08:36:35;;;;;;;6.28;4.07;;;;;;;;;;5051152;28;20883;-80
2022/08/23 08:39:03;;;;;;;6.85;4.00;;;;;;;;;;5047597;28;20574;-80
2022/08/23 08:41:38;;;;;;;6.57;4.13;;;;;;;;;;5049418;28;20425;-79
2022/08/23 08:44:08;;;;;;;8.82;4.15;;;;;;;;;;5048938;28;20463;-79
2022/08/23 08:46:39;;;;;;;7.20;4.07;;;;;;;;;;5050831;28;20417;-80
2022/08/23 08:49:05;;;;;;;10.73;4.15;;;;;;;;;;5051488;28;20439;-79
2022/08/23 08:51:39;;;;;;;10.77;4.55;;;;;;;;;;5051152;28;20428;-79
2022/08/23 08:54:08;;;;;;;6.20;4.00;;;;;;;;;;5052431;28;20910;-79
2022/08/23 08:56:37;;;;;;;6.20;4.00;;;;;;;;;;5047737;28;20430;-79
2022/08/23 08:59:05;;;;;;;9.90;4.95;;;;;;;;;;5047986;28;20437;-78
2022/08/23 09:01:32;;;;;;;10.45;5.03;;;;;;;;;;5050552;28;20419;-81
2022/08/23 09:03:58;;;;;;;11.03;4.40;;;;;;;;;;5052446;28;20886;-78
2022/08/23 09:06:28;;;;;;;6.83;4.27;;;;;;;;;;5051003;28;20416;-79
2022/08/23 09:09:04;;;;;;;8.33;4.03;;;;;;;;;;5049025;28;20791;-79
2022/08/23 09:11:37;;;;;;;7.25;3.80;;;;;;;;;;5049751;28;20429;-81
2022/08/23 09:14:09;;;;;;;4.60;3.63;;;;;;;;;;5050462;28;20444;-79
2022/08/23 09:16:40;;;;;;;6.65;4.07;;;;;;;;;;5049403;28;20877;-82
2022/08/23 09:19:06;;;;;;;5.85;3.75;;;;;;;;;;5049018;28;20409;-80
2022/08/23 09:21:37;;;;;;;5.57;3.85;;;;;;;;;;5047972;28;20429;-80
2022/08/23 09:24:05;;;;;;;6.97;4.33;;;;;;;;;;5052356;28;20428;-80
2022/08/23 09:26:31;;;;;;;6.15;4.05;;;;;;;;;;5049827;28;20417;-78
2022/08/23 09:29:00;;;;;;;6.10;4.50;;;;;;;;;;5049898;28;20515;-79
2022/08/23 09:31:37;;;;;;;8.27;4.70;;;;;;;;;;5050137;28;20421;-79
2022/08/23 09:34:04;;;;;;;9.43;4.55;;;;;;;;;;5051108;28;20412;-80
2022/08/23 09:36:32;;;;;;;7.53;4.43;;;;;;;;;;5050337;28;20425;-79
2022/08/23 09:39:00;;;;;;;8.35;3.90;;;;;;;;;;5046111;28;20461;-79
2022/08/23 09:41:31;;;;;;;7.15;4.30;;;;;;;;;;5051445;28;20413;-82
2022/08/23 09:44:01;;;;;;;6.00;3.55;;;;;;;;;;5046820;28;20427;-79
2022/08/23 09:46:29;;;;;;;4.97;3.47;;;;;;;;;;5051115;28;20487;-81
2022/08/23 09:48:57;;;;;;;8.20;4.28;;;;;;;;;;5049153;28;20417;-78
2022/08/23 09:51:25;;;;;;;5.20;3.50;;;;;;;;;;5050868;28;20475;-80
2022/08/23 09:53:53;;;;;;;6.55;3.90;;;;;;;;;;5047887;28;20425;-79
2022/08/23 09:56:24;;;;;;;7.13;4.20;;;;;;;;;;5049743;28;20421;-79
2022/08/23 09:58:52;;;;;;;9.38;3.80;;;;;;;;;;5048632;28;20491;-80
2022/08/23 10:01:20;;;;;;;7.03;3.70;;;;;;;;;;5051348;28;20425;-80
2022/08/23 10:03:47;;;;;;;6.88;3.90;;;;;;;;;;5048924;28;20425;-80
2022/08/23 10:06:28;;;;;;;7.05;3.90;;;;;;;;;;5050118;28;20950;-78
2022/08/23 10:09:04;;;;;;;7.25;4.00;;;;;;;;;;5047569;28;20436;-80
2022/08/23 10:11:32;;;;;;;6.65;4.20;;;;;;;;;;5050602;28;20428;-80
2022/08/23 10:14:01;;;;;;;6.25;4.03;;;;;;;;;;5047259;28;20425;-81
2022/08/23 10:16:33;;;;;;;8.40;3.80;;;;;;;;;;5049427;28;21036;-81
2022/08/23 10:19:03;;;;;;;5.43;3.50;;;;;;;;;;5041935;28;20416;-81
2022/08/23 10:21:34;;;;;;;8.35;4.20;;;;;;;;;;5050126;28;20417;-81
2022/08/23 10:24:10;;;;;;;8.87;4.00;;;;;;;;;;5048672;28;20433;-80
2022/08/23 10:26:39;;;;;;;8.98;4.00;;;;;;;;;;5048980;28;20417;-80
2022/08/23 10:32:01;;;;;;;7.65;3.90;;;;;;;;;;5049046;28;20543;-81
2022/08/23 10:34:37;;;;;;;8.52;4.15;;;;;;;;;;5050601;28;20951;-81
2022/08/23 10:37:09;;;;;;;5.07;3.90;;;;;;;;;;5049069;28;20438;-80
2022/08/23 10:39:39;;;;;;;7.47;3.80;;;;;;;;;;5050897;28;20583;-80
2022/08/23 10:42:07;;;;;;;6.82;3.25;;;;;;;;;;5049134;28;20428;-81
2022/08/23 10:44:39;;;;;;;8.38;3.67;;;;;;;;;;5047339;28;20429;-81
2022/08/23 10:47:14;;;;;;;6.57;3.80;;;;;;;;;;5047789;28;20426;-80
2022/08/23 10:49:41;;;;;;;3.80;3.20;;;;;;;;;;5050654;28;20423;-79
2022/08/23 10:52:09;;;;;;;7.50;3.60;;;;;;;;;;5049700;28;20413;-78
2022/08/23 10:54:45;;;;;;;6.10;3.67;;;;;;;;;;5049688;28;20995;-81
2022/08/23 10:57:14;;;;;;;6.60;3.67;;;;;;;;;;5045898;28;20430;-79
2022/08/23 10:59:42;;;;;;;5.45;3.40;;;;;;;;;;5046665;28;20425;-80
2022/08/23 11:02:18;;;;;;;7.55;3.80;;;;;;;;;;5050373;28;20933;-79
2022/08/23 11:04:54;;;;;;;6.40;3.45;;;;;;;;;;5051570;28;20543;-80
2022/08/23 11:07:26;;;;;;;5.50;3.97;;;;;;;;;;5052035;28;20429;-79
2022/08/23 11:09:57;;;;;;;7.15;3.33;;;;;;;;;;5046055;28;20979;-79
2022/08/23 11:12:29;;;;;;;5.93;3.60;;;;;;;;;;5055355;28;20417;-81
2022/08/23 11:15:19;;;;;;;5.32;3.28;;;;;;;;;;5053782;28;20425;-79
2022/08/23 11:17:59;;;;;;;5.70;3.72;;;;;;;;;;5053856;28;20426;-81
2022/08/23 11:20:44;;;;;;;5.38;3.20;;;;;;;;;;5053162;28;20436;-79
2022/08/23 11:23:11;;;;;;;5.10;3.30;;;;;;;;;;5056464;28;20409;-80
2022/08/23 11:25:40;;;;;;;6.78;3.08;;;;;;;;;;5053614;28;20440;-80
2022/08/23 11:28:25;;;;;;;5.50;3.20;;;;;;;;;;5074782;28;20411;-81
2022/08/23 11:31:12;;;;;;;4.38;3.00;;;;;;;;;;5072058;28;20423;-80
2022/08/23 11:33:43;;;;;;;5.25;3.40;;;;;;;;;;5035044;28;20413;-80
2022/08/23 11:36:17;;;;;;;6.50;3.30;;;;;;;;;;5052272;28;20420;-79
2022/08/23 11:39:02;;;;;;;6.60;3.42;;;;;;;;;;5051653;28;20938;-79
2022/08/23 11:41:29;;;;;;;7.07;3.40;;;;;;;;;;5053771;28;20445;-79
2022/08/23 11:44:14;;;;;;;4.63;3.17;;;;;;;;;;5052406;28;20670;-80
2022/08/23 11:46:58;;;;;;;4.30;3.03;;;;;;;;;;5051784;28;20421;-80
2022/08/23 11:49:48;;;;;;;4.57;2.97;;;;;;;;;;5053375;28;20467;-80
2022/08/23 11:52:18;;;;;;;6.03;3.20;;;;;;;;;;5050238;28;20412;-80
2022/08/23 11:54:55;;;;;;;5.90;3.10;;;;;;;;;;5054697;28;20438;-79
2022/08/23 11:57:29;;;;;;;4.55;3.10;;;;;;;;;;5056313;28;20427;-79
2022/08/23 12:00:20;;;;;;;5.45;3.17;;;;;;;;;;5049940;28;20442;-79
2022/08/23 12:03:00;;;;;;;5.70;2.78;;;;;;;;;;5035223;28;20993;-79
2022/08/23 12:05:41;;;;;;;7.13;3.50;;;;;;;;;;5054071;28;20482;-79
2022/08/23 12:08:28;;;;;;;4.80;3.10;;;;;;;;;;5070193;28;20431;-80
2022/08/23 12:10:59;;;;;;;6.70;3.00;;;;;;;;;;5070171;28;20407;-79
2022/08/23 12:13:29;;;;;;;5.90;3.10;;;;;;;;;;5047874;28;20883;-79
2022/08/23 12:16:10;;;;;;;6.10;3.23;;;;;;;;;;5048156;28;20929;-79
2022/08/23 12:18:39;;;;;;;4.83;2.80;;;;;;;;;;5053885;28;20560;-79
2022/08/23 12:21:07;;;;;;;5.22;3.10;;;;;;;;;;5052230;28;21029;-80
2022/08/23 12:23:42;;;;;;;7.18;3.00;;;;;;;;;;5048674;28;20435;-79
2022/08/23 12:26:12;;;;;;;4.90;2.72;;;;;;;;;;5050692;28;20409;-78
2022/08/23 12:28:43;;;;;;;8.27;2.90;;;;;;;;;;5052995;28;20448;-78
2022/08/23 12:31:16;;;;;;;6.00;3.10;;;;;;;;;;5048574;28;20448;-80
2022/08/23 12:33:49;;;;;;;4.30;3.05;;;;;;;;;;5052203;28;20421;-80
2022/08/23 12:36:18;;;;;;;5.85;3.10;;;;;;;;;;5049876;28;20428;-79
2022/08/23 12:38:50;;;;;;;5.60;3.00;;;;;;;;;;5043332;28;20910;-79
2022/08/23 12:41:19;;;;;;;6.37;2.70;;;;;;;;;;5048682;28;20416;-79
2022/08/23 12:43:57;;;;;;;3.75;2.80;;;;;;;;;;5051963;28;20433;-79
2022/08/23 12:46:39;;;;;;;3.33;2.70;;;;;;;;;;5049290;28;20417;-79
2022/08/23 12:49:08;;;;;;;7.35;3.10;;;;;;;;;;5052170;28;20921;-80
2022/08/23 12:51:39;;;;;;;4.35;2.35;;;;;;;;;;5051650;28;20421;-79
2022/08/23 12:54:12;;;;;;;4.00;2.97;;;;;;;;;;5051463;28;20424;-80
2022/08/23 12:56:43;;;;;;;4.28;3.00;;;;;;;;;;5048429;28;20919;-80
2022/08/23 12:59:21;;;;;;;3.75;2.40;;;;;;;;;;5052712;28;20413;-80
2022/08/23 13:01:47;;;;;;;3.58;2.60;;;;;;;;;;5050060;28;20416;-80
2022/08/23 13:04:15;;;;;;;5.22;2.85;;;;;;;;;;5048349;28;20436;-81
2022/08/23 13:06:44;;;;;;;4.85;2.80;;;;;;;;;;5050884;28;20425;-80
2022/08/23 13:09:13;;;;;;;4.40;2.60;;;;;;;;;;5052526;28;21046;-81
2022/08/23 13:11:40;;;;;;;5.90;2.90;;;;;;;;;;5050999;28;20425;-81
2022/08/23 13:14:21;;;;;;;6.80;3.40;;;;;;;;;;5048027;28;20429;-81
2022/08/23 13:16:48;;;;;;;5.97;2.80;;;;;;;;;;5049465;28;20915;-78
2022/08/23 13:19:17;;;;;;;5.53;2.90;;;;;;;;;;5051277;28;20425;-81
2022/08/23 13:21:44;;;;;;;6.05;2.72;;;;;;;;;;5051030;28;20413;-80
2022/08/23 13:24:31;;;;;;;6.50;2.90;;;;;;;;;;5047408;28;20434;-79
2022/08/23 13:27:10;;;;;;;4.72;2.50;;;;;;;;;;5045463;28;20447;-78
2022/08/23 13:29:47;;;;;;;5.50;2.40;;;;;;;;;;5048619;28;20413;-80
2022/08/23 13:32:24;;;;;;;3.93;2.50;;;;;;;;;;5047591;28;20799;-79
2022/08/23 13:34:52;;;;;;;6.85;2.80;;;;;;;;;;5050986;28;20791;-79
2022/08/23 13:37:23;;;;;;;5.47;2.50;;;;;;;;;;5050971;28;20791;-78
2022/08/23 13:39:53;;;;;;;3.03;2.60;;;;;;;;;;5050311;28;20432;-80
2022/08/23 13:42:31;;;;;;;4.65;2.60;;;;;;;;;;5050192;28;20467;-79
2022/08/23 13:44:58;;;;;;;3.25;2.50;;;;;;;;;;5045244;28;20469;-79
2022/08/23 13:47:26;;;;;;;3.17;2.10;;;;;;;;;;5049658;28;20444;-81
2022/08/23 13:49:55;;;;;;;2.30;2.10;;;;;;;;;;5049500;28;20423;-80
2022/08/23 13:52:21;;;;;;;5.63;2.60;;;;;;;;;;5051160;28;20417;-81
2022/08/23 13:54:48;;;;;;;2.80;2.50;;;;;;;;;;5048249;28;20429;-80
2022/08/23 13:57:15;;;;;;;3.78;2.40;;;;;;;;;;5035652;28;20413;-80
2022/08/23 13:59:48;;;;;;;7.60;3.00;;;;;;;;;;5049801;28;20436;-80
2022/08/23 14:02:16;;;;;;;5.23;2.73;;;;;;;;;;5050898;28;20796;-81
2022/08/23 14:04:42;;;;;;;4.95;2.40;;;;;;;;;;5049030;28;20980;-81
2022/08/23 14:07:10;;;;;;;3.88;2.50;;;;;;;;;;5049530;28;20492;-80
2022/08/23 14:09:37;;;;;;;4.40;2.70;;;;;;;;;;5050444;28;20418;-80
2022/08/23 14:12:06;;;;;;;4.60;2.40;;;;;;;;;;5045699;28;20432;-79
2022/08/23 14:14:33;;;;;;;2.90;2.10;;;;;;;;;;5049998;28;20436;-80
2022/08/23 14:16:59;;;;;;;5.15;2.33;;;;;;;;;;5049347;28;20428;-80
2022/08/23 14:19:25;;;;;;;3.33;2.27;;;;;;;;;;5050952;28;20446;-80
2022/08/23 14:21:52;;;;;;;4.55;2.30;;;;;;;;;;5049492;28;21344;-79
2022/08/23 14:24:19;;;;;;;5.88;2.70;;;;;;;;;;5048914;28;20444;-80
2022/08/23 14:26:46;;;;;;;5.47;2.30;;;;;;;;;;5032662;28;20955;-81
2022/08/23 14:29:13;;;;;;;4.75;2.40;;;;;;;;;;5048861;28;20456;-80
2022/08/23 14:31:39;;;;;;;3.60;2.80;;;;;;;;;;5050518;28;20417;-80
2022/08/23 14:34:06;;;;;;;5.03;2.40;;;;;;;;;;5050443;28;20433;-81
2022/08/23 14:36:32;;;;;;;4.80;2.23;;;;;;;;;;5051024;28;20440;-79
2022/08/23 14:38:59;;;;;;;5.90;2.40;;;;;;;;;;5049992;28;20483;-80
2022/08/23 14:41:27;;;;;;;3.63;2.10;;;;;;;;;;5053963;28;20470;-80
2022/08/23 14:43:53;;;;;;;4.28;2.38;;;;;;;;;;5053218;28;20436;-80
2022/08/23 14:46:23;;;;;;;3.20;2.30;;;;;;;;;;5052450;28;20420;-80
2022/08/23 14:48:50;;;;;;;4.65;2.65;;;;;;;;;;5053515;28;20456;-81
2022/08/23 14:51:23;;;;;;;3.15;2.63;;;;;;;;;;5054166;28;20500;-81
2022/08/23 14:53:49;;;;;;;6.00;2.60;;;;;;;;;;5056625;28;20427;-81
2022/08/23 14:56:15;;;;;;;4.78;2.40;;;;;;;;;;5052928;28;20885;-81
2022/08/23 14:58:43;;;;;;;3.80;2.10;;;;;;;;;;5052015;28;20429;-80
2022/08/23 15:01:11;;;;;;;4.95;2.50;;;;;;;;;;5050992;28;20421;-80
2022/08/23 15:03:40;;;;;;;6.50;2.70;;;;;;;;;;5054911;28;20425;-80
2022/08/23 15:06:07;;;;;;;5.65;2.50;;;;;;;;;;5043967;28;20454;-81
2022/08/23 15:08:33;;;;;;;2.55;2.30;;;;;;;;;;5052506;28;20840;-81